sensor_id;sensor_type;location;lat;lon;timestamp;P1;durP1;ratioP1;P2;durP2;ratioP2
76850;SDS011;65824;43.726;20.692;2024-03-02T00:00:40;17.80;;;9.13;;
76850;SDS011;65824;43.726;20.692;2024-03-02T00:03:05;20.77;;;9.75;;
76850;SDS011;65824;43.726;20.692;2024-03-02T00:05:32;20.42;;;9.43;;
76850;SDS011;65824;43.726;20.692;2024-03-02T00:07:58;17.52;;;9.85;;
76850;SDS011;65824;43.726;20.692;2024-03-02T00:10:25;19.02;;;9.77;;
76850;SDS011;65824;43.726;20.692;2024-03-02T00:12:54;16.23;;;8.95;;
76850;SDS011;65824;43.726;20.692;2024-03-02T00:15:34;18.40;;;8.32;;
76850;SDS011;65824;43.726;20.692;2024-03-02T00:18:08;20.55;;;9.60;;
76850;SDS011;65824;43.726;20.692;2024-03-02T00:20:36;17.63;;;8.98;;
76850;SDS011;65824;43.726;20.692;2024-03-02T00:23:05;16.63;;;8.13;;
76850;SDS011;65824;43.726;20.692;2024-03-02T00:25:39;18.88;;;9.05;;
76850;SDS011;65824;43.726;20.692;2024-03-02T00:28:20;17.83;;;8.90;;
76850;SDS011;65824;43.726;20.692;2024-03-02T00:33:35;17.60;;;9.23;;
76850;SDS011;65824;43.726;20.692;2024-03-02T00:36:04;16.35;;;7.63;;
76850;SDS011;65824;43.726;20.692;2024-03-02T00:38:31;13.00;;;7.13;;
76850;SDS011;65824;43.726;20.692;2024-03-02T00:41:04;16.80;;;9.27;;
76850;SDS011;65824;43.726;20.692;2024-03-02T00:45:58;18.50;;;8.68;;
76850;SDS011;65824;43.726;20.692;2024-03-02T00:48:23;17.83;;;8.27;;
76850;SDS011;65824;43.726;20.692;2024-03-02T00:50:52;18.60;;;9.60;;
76850;SDS011;65824;43.726;20.692;2024-03-02T00:53:18;14.93;;;8.98;;
76850;SDS011;65824;43.726;20.692;2024-03-02T00:55:51;18.73;;;9.10;;
76850;SDS011;65824;43.726;20.692;2024-03-02T00:58:16;18.67;;;9.35;;
76850;SDS011;65824;43.726;20.692;2024-03-02T01:00:42;18.50;;;9.68;;
76850;SDS011;65824;43.726;20.692;2024-03-02T01:03:08;18.23;;;9.43;;
76850;SDS011;65824;43.726;20.692;2024-03-02T01:05:35;20.67;;;9.50;;
76850;SDS011;65824;43.726;20.692;2024-03-02T01:08:02;17.45;;;9.25;;
76850;SDS011;65824;43.726;20.692;2024-03-02T01:10:28;17.80;;;9.68;;
76850;SDS011;65824;43.726;20.692;2024-03-02T01:12:54;17.75;;;9.18;;
76850;SDS011;65824;43.726;20.692;2024-03-02T01:15:20;20.77;;;9.50;;
76850;SDS011;65824;43.726;20.692;2024-03-02T01:17:46;17.83;;;8.60;;
76850;SDS011;65824;43.726;20.692;2024-03-02T01:20:11;19.70;;;9.68;;
76850;SDS011;65824;43.726;20.692;2024-03-02T01:22:37;21.05;;;10.30;;
76850;SDS011;65824;43.726;20.692;2024-03-02T01:25:02;19.50;;;9.48;;
76850;SDS011;65824;43.726;20.692;2024-03-02T01:27:29;18.63;;;10.05;;
76850;SDS011;65824;43.726;20.692;2024-03-02T01:29:55;18.85;;;9.95;;
76850;SDS011;65824;43.726;20.692;2024-03-02T01:32:20;19.58;;;10.10;;
76850;SDS011;65824;43.726;20.692;2024-03-02T01:34:46;19.23;;;9.93;;
76850;SDS011;65824;43.726;20.692;2024-03-02T01:37:12;19.77;;;9.32;;
76850;SDS011;65824;43.726;20.692;2024-03-02T01:39:38;20.23;;;10.23;;
76850;SDS011;65824;43.726;20.692;2024-03-02T01:42:04;19.00;;;9.65;;
76850;SDS011;65824;43.726;20.692;2024-03-02T01:44:29;20.55;;;9.68;;
76850;SDS011;65824;43.726;20.692;2024-03-02T01:46:55;17.50;;;9.32;;
76850;SDS011;65824;43.726;20.692;2024-03-02T01:49:21;18.50;;;9.57;;
76850;SDS011;65824;43.726;20.692;2024-03-02T01:51:47;18.17;;;9.23;;
76850;SDS011;65824;43.726;20.692;2024-03-02T01:54:12;15.85;;;8.65;;
76850;SDS011;65824;43.726;20.692;2024-03-02T01:56:38;18.23;;;9.60;;
76850;SDS011;65824;43.726;20.692;2024-03-02T01:59:03;17.73;;;9.60;;
76850;SDS011;65824;43.726;20.692;2024-03-02T02:01:29;16.90;;;9.32;;
76850;SDS011;65824;43.726;20.692;2024-03-02T02:03:56;18.48;;;9.40;;
76850;SDS011;65824;43.726;20.692;2024-03-02T02:06:21;17.10;;;8.57;;
76850;SDS011;65824;43.726;20.692;2024-03-02T02:08:48;18.45;;;9.35;;
76850;SDS011;65824;43.726;20.692;2024-03-02T02:11:17;16.67;;;8.50;;
76850;SDS011;65824;43.726;20.692;2024-03-02T02:13:42;18.20;;;9.35;;
76850;SDS011;65824;43.726;20.692;2024-03-02T02:16:09;16.63;;;8.98;;
76850;SDS011;65824;43.726;20.692;2024-03-02T02:18:36;18.98;;;9.55;;
76850;SDS011;65824;43.726;20.692;2024-03-02T02:21:02;14.82;;;8.40;;
76850;SDS011;65824;43.726;20.692;2024-03-02T02:23:33;14.95;;;8.00;;
76850;SDS011;65824;43.726;20.692;2024-03-02T02:25:59;17.48;;;8.57;;
76850;SDS011;65824;43.726;20.692;2024-03-02T02:28:24;17.40;;;8.55;;
76850;SDS011;65824;43.726;20.692;2024-03-02T02:30:50;15.68;;;8.80;;
76850;SDS011;65824;43.726;20.692;2024-03-02T02:33:16;16.35;;;8.75;;
76850;SDS011;65824;43.726;20.692;2024-03-02T02:35:42;17.73;;;8.70;;
76850;SDS011;65824;43.726;20.692;2024-03-02T02:38:08;19.15;;;8.27;;
76850;SDS011;65824;43.726;20.692;2024-03-02T02:40:34;15.07;;;7.85;;
76850;SDS011;65824;43.726;20.692;2024-03-02T02:43:01;14.40;;;7.22;;
76850;SDS011;65824;43.726;20.692;2024-03-02T02:45:27;12.73;;;6.85;;
76850;SDS011;65824;43.726;20.692;2024-03-02T02:47:52;13.20;;;7.50;;
76850;SDS011;65824;43.726;20.692;2024-03-02T02:50:18;13.45;;;7.20;;
76850;SDS011;65824;43.726;20.692;2024-03-02T02:52:44;16.23;;;7.85;;
76850;SDS011;65824;43.726;20.692;2024-03-02T02:55:10;15.80;;;7.80;;
76850;SDS011;65824;43.726;20.692;2024-03-02T02:57:36;14.13;;;7.43;;
76850;SDS011;65824;43.726;20.692;2024-03-02T03:00:07;13.20;;;7.07;;
76850;SDS011;65824;43.726;20.692;2024-03-02T03:02:42;14.75;;;7.53;;
76850;SDS011;65824;43.726;20.692;2024-03-02T03:05:09;13.85;;;7.53;;
76850;SDS011;65824;43.726;20.692;2024-03-02T03:07:35;13.07;;;7.25;;
76850;SDS011;65824;43.726;20.692;2024-03-02T03:10:02;14.27;;;6.90;;
76850;SDS011;65824;43.726;20.692;2024-03-02T03:12:29;13.55;;;7.50;;
76850;SDS011;65824;43.726;20.692;2024-03-02T03:14:56;14.15;;;7.45;;
76850;SDS011;65824;43.726;20.692;2024-03-02T03:17:22;12.90;;;7.22;;
76850;SDS011;65824;43.726;20.692;2024-03-02T03:19:48;13.55;;;6.70;;
76850;SDS011;65824;43.726;20.692;2024-03-02T03:22:16;11.75;;;6.95;;
76850;SDS011;65824;43.726;20.692;2024-03-02T03:24:42;13.80;;;7.10;;
76850;SDS011;65824;43.726;20.692;2024-03-02T03:27:07;11.82;;;6.32;;
76850;SDS011;65824;43.726;20.692;2024-03-02T03:29:34;12.50;;;6.35;;
76850;SDS011;65824;43.726;20.692;2024-03-02T03:32:01;13.90;;;7.00;;
76850;SDS011;65824;43.726;20.692;2024-03-02T03:34:27;12.80;;;7.28;;
76850;SDS011;65824;43.726;20.692;2024-03-02T03:36:54;12.15;;;6.63;;
76850;SDS011;65824;43.726;20.692;2024-03-02T03:39:20;11.52;;;6.70;;
76850;SDS011;65824;43.726;20.692;2024-03-02T03:41:47;12.57;;;6.68;;
76850;SDS011;65824;43.726;20.692;2024-03-02T03:44:12;11.05;;;6.50;;
76850;SDS011;65824;43.726;20.692;2024-03-02T03:46:37;12.45;;;6.90;;
76850;SDS011;65824;43.726;20.692;2024-03-02T03:49:03;11.70;;;6.93;;
76850;SDS011;65824;43.726;20.692;2024-03-02T03:51:29;12.40;;;7.32;;
76850;SDS011;65824;43.726;20.692;2024-03-02T03:53:55;16.67;;;7.80;;
76850;SDS011;65824;43.726;20.692;2024-03-02T03:56:21;14.45;;;8.15;;
76850;SDS011;65824;43.726;20.692;2024-03-02T03:58:46;13.98;;;7.57;;
76850;SDS011;65824;43.726;20.692;2024-03-02T04:01:12;13.40;;;6.50;;
76850;SDS011;65824;43.726;20.692;2024-03-02T04:03:38;11.57;;;6.47;;
76850;SDS011;65824;43.726;20.692;2024-03-02T04:06:03;14.07;;;6.40;;
76850;SDS011;65824;43.726;20.692;2024-03-02T04:08:29;13.15;;;6.30;;
76850;SDS011;65824;43.726;20.692;2024-03-02T04:10:54;11.82;;;6.40;;
76850;SDS011;65824;43.726;20.692;2024-03-02T04:13:22;10.55;;;6.13;;
76850;SDS011;65824;43.726;20.692;2024-03-02T04:15:48;11.77;;;6.47;;
76850;SDS011;65824;43.726;20.692;2024-03-02T04:18:14;11.93;;;6.43;;
76850;SDS011;65824;43.726;20.692;2024-03-02T04:20:40;13.57;;;6.70;;
76850;SDS011;65824;43.726;20.692;2024-03-02T04:23:05;16.98;;;7.78;;
76850;SDS011;65824;43.726;20.692;2024-03-02T04:25:31;17.33;;;8.98;;
76850;SDS011;65824;43.726;20.692;2024-03-02T04:27:56;16.88;;;8.93;;
76850;SDS011;65824;43.726;20.692;2024-03-02T04:30:23;17.20;;;8.27;;
76850;SDS011;65824;43.726;20.692;2024-03-02T04:32:48;13.18;;;6.82;;
76850;SDS011;65824;43.726;20.692;2024-03-02T04:35:14;12.15;;;6.50;;
76850;SDS011;65824;43.726;20.692;2024-03-02T04:37:40;11.27;;;6.72;;
76850;SDS011;65824;43.726;20.692;2024-03-02T04:40:05;11.63;;;6.05;;
76850;SDS011;65824;43.726;20.692;2024-03-02T04:42:33;12.73;;;6.35;;
76850;SDS011;65824;43.726;20.692;2024-03-02T04:44:59;12.15;;;5.78;;
76850;SDS011;65824;43.726;20.692;2024-03-02T04:47:24;9.65;;;5.70;;
76850;SDS011;65824;43.726;20.692;2024-03-02T04:49:51;11.13;;;5.85;;
76850;SDS011;65824;43.726;20.692;2024-03-02T04:52:16;12.73;;;6.60;;
76850;SDS011;65824;43.726;20.692;2024-03-02T04:54:42;10.63;;;6.20;;
76850;SDS011;65824;43.726;20.692;2024-03-02T04:57:26;11.13;;;6.47;;
76850;SDS011;65824;43.726;20.692;2024-03-02T04:59:55;12.27;;;6.00;;
76850;SDS011;65824;43.726;20.692;2024-03-02T05:02:20;11.45;;;6.07;;
76850;SDS011;65824;43.726;20.692;2024-03-02T05:04:46;12.52;;;6.30;;
76850;SDS011;65824;43.726;20.692;2024-03-02T05:07:13;11.70;;;6.63;;
76850;SDS011;65824;43.726;20.692;2024-03-02T05:09:41;12.68;;;6.30;;
76850;SDS011;65824;43.726;20.692;2024-03-02T05:12:07;13.50;;;6.22;;
76850;SDS011;65824;43.726;20.692;2024-03-02T05:15:05;11.43;;;7.03;;
76850;SDS011;65824;43.726;20.692;2024-03-02T05:17:32;10.60;;;6.47;;
76850;SDS011;65824;43.726;20.692;2024-03-02T05:19:59;12.90;;;6.82;;
76850;SDS011;65824;43.726;20.692;2024-03-02T05:22:24;10.98;;;5.88;;
76850;SDS011;65824;43.726;20.692;2024-03-02T05:24:50;12.35;;;7.00;;
76850;SDS011;65824;43.726;20.692;2024-03-02T05:27:16;12.57;;;6.47;;
76850;SDS011;65824;43.726;20.692;2024-03-02T05:29:41;11.20;;;5.95;;
76850;SDS011;65824;43.726;20.692;2024-03-02T05:32:07;12.07;;;6.75;;
76850;SDS011;65824;43.726;20.692;2024-03-02T05:34:32;10.60;;;6.30;;
76850;SDS011;65824;43.726;20.692;2024-03-02T05:37:00;13.90;;;8.60;;
76850;SDS011;65824;43.726;20.692;2024-03-02T05:39:26;11.20;;;6.75;;
76850;SDS011;65824;43.726;20.692;2024-03-02T05:41:51;13.60;;;6.80;;
76850;SDS011;65824;43.726;20.692;2024-03-02T05:44:17;14.23;;;7.75;;
76850;SDS011;65824;43.726;20.692;2024-03-02T05:46:43;11.88;;;6.68;;
76850;SDS011;65824;43.726;20.692;2024-03-02T05:49:10;11.50;;;6.28;;
76850;SDS011;65824;43.726;20.692;2024-03-02T05:51:36;14.00;;;7.75;;
76850;SDS011;65824;43.726;20.692;2024-03-02T05:54:04;11.25;;;6.57;;
76850;SDS011;65824;43.726;20.692;2024-03-02T05:56:30;12.90;;;6.43;;
76850;SDS011;65824;43.726;20.692;2024-03-02T05:58:55;12.05;;;6.45;;
76850;SDS011;65824;43.726;20.692;2024-03-02T06:01:33;9.93;;;5.80;;
76850;SDS011;65824;43.726;20.692;2024-03-02T06:03:58;13.50;;;6.63;;
76850;SDS011;65824;43.726;20.692;2024-03-02T06:06:24;13.98;;;6.25;;
76850;SDS011;65824;43.726;20.692;2024-03-02T06:08:52;11.75;;;6.20;;
76850;SDS011;65824;43.726;20.692;2024-03-02T06:11:21;15.30;;;7.05;;
76850;SDS011;65824;43.726;20.692;2024-03-02T06:13:46;12.95;;;6.45;;
76850;SDS011;65824;43.726;20.692;2024-03-02T06:16:12;12.98;;;7.10;;
76850;SDS011;65824;43.726;20.692;2024-03-02T06:18:37;14.38;;;7.03;;
76850;SDS011;65824;43.726;20.692;2024-03-02T06:21:03;12.73;;;6.65;;
76850;SDS011;65824;43.726;20.692;2024-03-02T06:23:29;11.85;;;5.75;;
76850;SDS011;65824;43.726;20.692;2024-03-02T06:25:55;11.05;;;6.25;;
76850;SDS011;65824;43.726;20.692;2024-03-02T06:28:21;12.88;;;5.55;;
76850;SDS011;65824;43.726;20.692;2024-03-02T06:30:47;10.73;;;6.60;;
76850;SDS011;65824;43.726;20.692;2024-03-02T06:33:13;12.50;;;5.85;;
76850;SDS011;65824;43.726;20.692;2024-03-02T06:35:38;11.65;;;6.13;;
76850;SDS011;65824;43.726;20.692;2024-03-02T06:38:04;10.07;;;6.40;;
76850;SDS011;65824;43.726;20.692;2024-03-02T06:40:30;12.73;;;6.68;;
76850;SDS011;65824;43.726;20.692;2024-03-02T06:42:56;13.43;;;6.38;;
76850;SDS011;65824;43.726;20.692;2024-03-02T06:45:21;9.40;;;5.38;;
76850;SDS011;65824;43.726;20.692;2024-03-02T06:47:47;10.82;;;5.70;;
76850;SDS011;65824;43.726;20.692;2024-03-02T06:50:12;10.80;;;5.55;;
76850;SDS011;65824;43.726;20.692;2024-03-02T06:52:38;8.82;;;5.55;;
76850;SDS011;65824;43.726;20.692;2024-03-02T06:55:04;11.95;;;6.10;;
76850;SDS011;65824;43.726;20.692;2024-03-02T06:57:31;11.45;;;5.90;;
76850;SDS011;65824;43.726;20.692;2024-03-02T06:59:56;10.73;;;5.68;;
76850;SDS011;65824;43.726;20.692;2024-03-02T07:02:24;9.43;;;5.20;;
76850;SDS011;65824;43.726;20.692;2024-03-02T07:04:52;9.77;;;4.97;;
76850;SDS011;65824;43.726;20.692;2024-03-02T07:07:18;8.77;;;4.90;;
76850;SDS011;65824;43.726;20.692;2024-03-02T07:09:46;11.88;;;5.55;;
76850;SDS011;65824;43.726;20.692;2024-03-02T07:12:12;10.68;;;5.45;;
76850;SDS011;65824;43.726;20.692;2024-03-02T07:14:38;13.13;;;5.88;;
76850;SDS011;65824;43.726;20.692;2024-03-02T07:17:23;10.07;;;5.40;;
76850;SDS011;65824;43.726;20.692;2024-03-02T07:19:48;8.45;;;4.80;;
76850;SDS011;65824;43.726;20.692;2024-03-02T07:22:15;9.57;;;4.82;;
76850;SDS011;65824;43.726;20.692;2024-03-02T07:24:41;11.95;;;6.07;;
76850;SDS011;65824;43.726;20.692;2024-03-02T07:27:08;11.27;;;5.88;;
76850;SDS011;65824;43.726;20.692;2024-03-02T07:29:34;14.15;;;7.18;;
76850;SDS011;65824;43.726;20.692;2024-03-02T07:32:00;10.10;;;5.47;;
76850;SDS011;65824;43.726;20.692;2024-03-02T07:34:25;10.55;;;6.43;;
76850;SDS011;65824;43.726;20.692;2024-03-02T07:36:51;11.38;;;5.93;;
76850;SDS011;65824;43.726;20.692;2024-03-02T07:39:23;10.82;;;5.75;;
76850;SDS011;65824;43.726;20.692;2024-03-02T07:41:49;11.75;;;6.30;;
76850;SDS011;65824;43.726;20.692;2024-03-02T07:44:14;10.00;;;6.05;;
76850;SDS011;65824;43.726;20.692;2024-03-02T07:46:44;9.32;;;4.95;;
76850;SDS011;65824;43.726;20.692;2024-03-02T07:49:11;9.27;;;4.60;;
76850;SDS011;65824;43.726;20.692;2024-03-02T07:51:39;10.57;;;4.90;;
76850;SDS011;65824;43.726;20.692;2024-03-02T07:54:06;9.98;;;5.05;;
76850;SDS011;65824;43.726;20.692;2024-03-02T07:56:31;10.52;;;5.55;;
76850;SDS011;65824;43.726;20.692;2024-03-02T07:58:56;9.68;;;5.40;;
76850;SDS011;65824;43.726;20.692;2024-03-02T08:01:26;9.88;;;4.78;;
76850;SDS011;65824;43.726;20.692;2024-03-02T08:03:54;8.77;;;4.88;;
76850;SDS011;65824;43.726;20.692;2024-03-02T08:06:23;11.90;;;5.40;;
76850;SDS011;65824;43.726;20.692;2024-03-02T08:08:52;11.35;;;5.28;;
76850;SDS011;65824;43.726;20.692;2024-03-02T08:11:24;10.85;;;4.82;;
76850;SDS011;65824;43.726;20.692;2024-03-02T08:13:56;8.75;;;4.78;;
76850;SDS011;65824;43.726;20.692;2024-03-02T08:16:23;11.80;;;5.40;;
76850;SDS011;65824;43.726;20.692;2024-03-02T08:18:50;10.85;;;5.65;;
76850;SDS011;65824;43.726;20.692;2024-03-02T08:21:16;12.10;;;5.28;;
76850;SDS011;65824;43.726;20.692;2024-03-02T08:23:42;11.27;;;6.22;;
76850;SDS011;65824;43.726;20.692;2024-03-02T08:26:10;10.38;;;5.70;;
76850;SDS011;65824;43.726;20.692;2024-03-02T08:28:36;9.20;;;5.05;;
76850;SDS011;65824;43.726;20.692;2024-03-02T08:31:02;15.75;;;6.70;;
76850;SDS011;65824;43.726;20.692;2024-03-02T08:33:28;9.73;;;5.18;;
76850;SDS011;65824;43.726;20.692;2024-03-02T08:35:54;13.60;;;5.53;;
76850;SDS011;65824;43.726;20.692;2024-03-02T08:38:19;10.27;;;5.30;;
76850;SDS011;65824;43.726;20.692;2024-03-02T08:40:45;9.90;;;5.00;;
76850;SDS011;65824;43.726;20.692;2024-03-02T08:43:10;8.88;;;5.15;;
76850;SDS011;65824;43.726;20.692;2024-03-02T08:45:39;9.77;;;5.20;;
76850;SDS011;65824;43.726;20.692;2024-03-02T08:48:06;8.80;;;5.05;;
76850;SDS011;65824;43.726;20.692;2024-03-02T08:50:33;7.90;;;4.70;;
76850;SDS011;65824;43.726;20.692;2024-03-02T08:53:00;8.77;;;4.55;;
76850;SDS011;65824;43.726;20.692;2024-03-02T08:55:26;11.25;;;4.90;;
76850;SDS011;65824;43.726;20.692;2024-03-02T08:57:51;9.55;;;4.78;;
76850;SDS011;65824;43.726;20.692;2024-03-02T09:00:17;9.38;;;5.15;;
76850;SDS011;65824;43.726;20.692;2024-03-02T09:02:43;8.95;;;4.85;;
76850;SDS011;65824;43.726;20.692;2024-03-02T09:05:09;9.77;;;4.50;;
76850;SDS011;65824;43.726;20.692;2024-03-02T09:07:35;9.32;;;5.32;;
76850;SDS011;65824;43.726;20.692;2024-03-02T09:10:00;8.95;;;4.55;;
76850;SDS011;65824;43.726;20.692;2024-03-02T09:12:26;10.10;;;5.38;;
76850;SDS011;65824;43.726;20.692;2024-03-02T09:14:53;11.10;;;4.95;;
76850;SDS011;65824;43.726;20.692;2024-03-02T09:17:18;9.68;;;5.28;;
76850;SDS011;65824;43.726;20.692;2024-03-02T09:19:45;9.00;;;5.10;;
76850;SDS011;65824;43.726;20.692;2024-03-02T09:22:12;10.65;;;5.43;;
76850;SDS011;65824;43.726;20.692;2024-03-02T09:24:38;9.88;;;5.18;;
76850;SDS011;65824;43.726;20.692;2024-03-02T09:27:04;8.23;;;5.05;;
76850;SDS011;65824;43.726;20.692;2024-03-02T09:29:32;9.32;;;5.40;;
76850;SDS011;65824;43.726;20.692;2024-03-02T09:31:57;11.05;;;5.03;;
76850;SDS011;65824;43.726;20.692;2024-03-02T09:34:23;9.15;;;5.30;;
76850;SDS011;65824;43.726;20.692;2024-03-02T09:36:48;11.65;;;5.88;;
76850;SDS011;65824;43.726;20.692;2024-03-02T09:39:16;11.27;;;5.65;;
76850;SDS011;65824;43.726;20.692;2024-03-02T09:41:45;13.38;;;6.45;;
76850;SDS011;65824;43.726;20.692;2024-03-02T09:44:10;9.50;;;5.32;;
76850;SDS011;65824;43.726;20.692;2024-03-02T09:46:36;10.80;;;5.65;;
76850;SDS011;65824;43.726;20.692;2024-03-02T09:49:02;9.95;;;5.50;;
76850;SDS011;65824;43.726;20.692;2024-03-02T09:51:27;10.90;;;5.75;;
76850;SDS011;65824;43.726;20.692;2024-03-02T09:53:54;11.13;;;6.38;;
76850;SDS011;65824;43.726;20.692;2024-03-02T09:56:21;9.38;;;5.10;;
76850;SDS011;65824;43.726;20.692;2024-03-02T09:58:47;10.02;;;5.55;;
76850;SDS011;65824;43.726;20.692;2024-03-02T10:01:12;10.52;;;6.10;;
76850;SDS011;65824;43.726;20.692;2024-03-02T10:03:40;10.20;;;6.00;;
76850;SDS011;65824;43.726;20.692;2024-03-02T10:06:23;9.35;;;5.45;;
76850;SDS011;65824;43.726;20.692;2024-03-02T10:08:51;9.95;;;5.53;;
76850;SDS011;65824;43.726;20.692;2024-03-02T10:14:07;8.10;;;5.60;;
76850;SDS011;65824;43.726;20.692;2024-03-02T10:16:44;9.13;;;5.57;;
76850;SDS011;65824;43.726;20.692;2024-03-02T10:19:20;10.93;;;6.28;;
76850;SDS011;65824;43.726;20.692;2024-03-02T10:21:46;11.88;;;6.18;;
76850;SDS011;65824;43.726;20.692;2024-03-02T10:24:12;11.23;;;6.22;;
76850;SDS011;65824;43.726;20.692;2024-03-02T10:26:38;11.45;;;5.72;;
76850;SDS011;65824;43.726;20.692;2024-03-02T10:29:10;9.27;;;5.65;;
76850;SDS011;65824;43.726;20.692;2024-03-02T10:31:39;9.82;;;5.10;;
76850;SDS011;65824;43.726;20.692;2024-03-02T10:34:09;9.25;;;5.45;;
76850;SDS011;65824;43.726;20.692;2024-03-02T10:36:37;8.63;;;5.10;;
76850;SDS011;65824;43.726;20.692;2024-03-02T10:39:06;9.88;;;5.70;;
76850;SDS011;65824;43.726;20.692;2024-03-02T10:41:34;10.20;;;5.63;;
76850;SDS011;65824;43.726;20.692;2024-03-02T10:44:03;9.52;;;5.63;;
76850;SDS011;65824;43.726;20.692;2024-03-02T10:46:31;10.68;;;5.32;;
76850;SDS011;65824;43.726;20.692;2024-03-02T10:49:02;10.13;;;5.53;;
76850;SDS011;65824;43.726;20.692;2024-03-02T10:51:30;11.52;;;5.72;;
76850;SDS011;65824;43.726;20.692;2024-03-02T10:54:00;11.95;;;5.90;;
76850;SDS011;65824;43.726;20.692;2024-03-02T10:56:39;10.15;;;5.00;;
76850;SDS011;65824;43.726;20.692;2024-03-02T11:01:34;9.90;;;5.07;;
76850;SDS011;65824;43.726;20.692;2024-03-02T11:04:01;8.05;;;5.00;;
76850;SDS011;65824;43.726;20.692;2024-03-02T11:06:28;8.98;;;5.13;;
76850;SDS011;65824;43.726;20.692;2024-03-02T11:08:55;8.13;;;4.97;;
76850;SDS011;65824;43.726;20.692;2024-03-02T11:11:28;11.25;;;5.25;;
76850;SDS011;65824;43.726;20.692;2024-03-02T11:13:56;9.95;;;5.85;;
76850;SDS011;65824;43.726;20.692;2024-03-02T11:16:34;9.82;;;5.13;;
76850;SDS011;65824;43.726;20.692;2024-03-02T11:19:05;11.88;;;5.30;;
76850;SDS011;65824;43.726;20.692;2024-03-02T11:21:33;9.52;;;5.28;;
76850;SDS011;65824;43.726;20.692;2024-03-02T11:24:00;10.57;;;5.22;;
76850;SDS011;65824;43.726;20.692;2024-03-02T11:26:27;10.15;;;5.35;;
76850;SDS011;65824;43.726;20.692;2024-03-02T11:28:54;10.77;;;5.35;;
76850;SDS011;65824;43.726;20.692;2024-03-02T11:31:21;11.45;;;5.65;;
76850;SDS011;65824;43.726;20.692;2024-03-02T11:34:29;11.95;;;5.63;;
76850;SDS011;65824;43.726;20.692;2024-03-02T11:36:59;11.75;;;5.78;;
76850;SDS011;65824;43.726;20.692;2024-03-02T11:39:30;11.15;;;5.60;;
76850;SDS011;65824;43.726;20.692;2024-03-02T11:41:57;11.95;;;5.47;;
76850;SDS011;65824;43.726;20.692;2024-03-02T11:44:29;10.48;;;5.70;;
76850;SDS011;65824;43.726;20.692;2024-03-02T11:47:01;10.77;;;5.22;;
76850;SDS011;65824;43.726;20.692;2024-03-02T11:52:06;10.15;;;5.13;;
76850;SDS011;65824;43.726;20.692;2024-03-02T11:54:32;7.68;;;4.22;;
76850;SDS011;65824;43.726;20.692;2024-03-02T11:57:01;8.55;;;4.72;;
76850;SDS011;65824;43.726;20.692;2024-03-02T11:59:28;10.02;;;4.78;;
76850;SDS011;65824;43.726;20.692;2024-03-02T12:01:54;11.63;;;4.97;;
76850;SDS011;65824;43.726;20.692;2024-03-02T12:04:21;10.32;;;5.30;;
76850;SDS011;65824;43.726;20.692;2024-03-02T12:06:47;10.70;;;4.63;;
76850;SDS011;65824;43.726;20.692;2024-03-02T12:09:14;10.48;;;4.82;;
76850;SDS011;65824;43.726;20.692;2024-03-02T12:11:39;9.73;;;4.57;;
76850;SDS011;65824;43.726;20.692;2024-03-02T12:14:10;8.55;;;4.32;;
76850;SDS011;65824;43.726;20.692;2024-03-02T12:16:43;8.65;;;4.53;;
76850;SDS011;65824;43.726;20.692;2024-03-02T12:19:09;12.80;;;5.15;;
76850;SDS011;65824;43.726;20.692;2024-03-02T12:21:34;11.40;;;4.40;;
76850;SDS011;65824;43.726;20.692;2024-03-02T12:24:03;9.10;;;5.00;;
76850;SDS011;65824;43.726;20.692;2024-03-02T12:26:28;11.80;;;4.32;;
76850;SDS011;65824;43.726;20.692;2024-03-02T12:28:57;9.00;;;4.03;;
76850;SDS011;65824;43.726;20.692;2024-03-02T12:31:24;10.27;;;4.38;;
76850;SDS011;65824;43.726;20.692;2024-03-02T12:33:49;11.13;;;4.63;;
76850;SDS011;65824;43.726;20.692;2024-03-02T12:36:15;9.60;;;4.15;;
76850;SDS011;65824;43.726;20.692;2024-03-02T12:38:43;8.40;;;3.92;;
76850;SDS011;65824;43.726;20.692;2024-03-02T12:41:09;9.57;;;4.35;;
76850;SDS011;65824;43.726;20.692;2024-03-02T12:43:35;7.47;;;4.53;;
76850;SDS011;65824;43.726;20.692;2024-03-02T12:46:01;8.25;;;3.65;;
76850;SDS011;65824;43.726;20.692;2024-03-02T12:48:28;10.15;;;4.22;;
76850;SDS011;65824;43.726;20.692;2024-03-02T12:50:54;7.15;;;4.07;;
76850;SDS011;65824;43.726;20.692;2024-03-02T12:53:23;9.20;;;4.97;;
76850;SDS011;65824;43.726;20.692;2024-03-02T12:55:49;10.88;;;4.57;;
76850;SDS011;65824;43.726;20.692;2024-03-02T12:58:21;10.00;;;4.75;;
76850;SDS011;65824;43.726;20.692;2024-03-02T13:00:47;12.60;;;4.00;;
76850;SDS011;65824;43.726;20.692;2024-03-02T13:03:14;10.02;;;4.03;;
76850;SDS011;65824;43.726;20.692;2024-03-02T13:05:40;9.82;;;4.25;;
76850;SDS011;65824;43.726;20.692;2024-03-02T13:08:13;8.80;;;4.38;;
76850;SDS011;65824;43.726;20.692;2024-03-02T13:10:38;10.15;;;3.55;;
76850;SDS011;65824;43.726;20.692;2024-03-02T13:13:06;10.88;;;4.30;;
76850;SDS011;65824;43.726;20.692;2024-03-02T13:15:33;6.90;;;4.00;;
76850;SDS011;65824;43.726;20.692;2024-03-02T13:17:59;7.90;;;4.05;;
76850;SDS011;65824;43.726;20.692;2024-03-02T13:20:32;10.07;;;4.80;;
76850;SDS011;65824;43.726;20.692;2024-03-02T13:22:57;7.65;;;4.35;;
76850;SDS011;65824;43.726;20.692;2024-03-02T13:25:23;8.93;;;3.78;;
76850;SDS011;65824;43.726;20.692;2024-03-02T13:27:48;9.77;;;4.10;;
76850;SDS011;65824;43.726;20.692;2024-03-02T13:30:14;8.70;;;4.10;;
76850;SDS011;65824;43.726;20.692;2024-03-02T13:32:39;10.13;;;4.90;;
76850;SDS011;65824;43.726;20.692;2024-03-02T13:35:05;9.38;;;4.75;;
76850;SDS011;65824;43.726;20.692;2024-03-02T13:37:31;9.25;;;4.13;;
76850;SDS011;65824;43.726;20.692;2024-03-02T13:39:57;9.85;;;3.88;;
76850;SDS011;65824;43.726;20.692;2024-03-02T13:42:23;7.53;;;4.07;;
76850;SDS011;65824;43.726;20.692;2024-03-02T13:44:48;11.98;;;4.57;;
76850;SDS011;65824;43.726;20.692;2024-03-02T13:47:16;9.55;;;5.20;;
76850;SDS011;65824;43.726;20.692;2024-03-02T13:49:41;10.70;;;4.90;;
76850;SDS011;65824;43.726;20.692;2024-03-02T13:52:11;9.18;;;4.82;;
76850;SDS011;65824;43.726;20.692;2024-03-02T13:54:39;10.82;;;4.70;;
76850;SDS011;65824;43.726;20.692;2024-03-02T13:57:12;12.02;;;4.80;;
76850;SDS011;65824;43.726;20.692;2024-03-02T13:59:37;10.73;;;5.00;;
76850;SDS011;65824;43.726;20.692;2024-03-02T14:02:04;9.15;;;5.00;;
76850;SDS011;65824;43.726;20.692;2024-03-02T14:04:30;12.25;;;5.65;;
76850;SDS011;65824;43.726;20.692;2024-03-02T14:07:00;9.90;;;4.78;;
76850;SDS011;65824;43.726;20.692;2024-03-02T14:09:26;17.17;;;7.97;;
76850;SDS011;65824;43.726;20.692;2024-03-02T14:11:52;8.52;;;4.40;;
76850;SDS011;65824;43.726;20.692;2024-03-02T14:14:38;11.65;;;4.68;;
76850;SDS011;65824;43.726;20.692;2024-03-02T14:17:05;8.30;;;4.45;;
76850;SDS011;65824;43.726;20.692;2024-03-02T14:19:31;11.70;;;4.72;;
76850;SDS011;65824;43.726;20.692;2024-03-02T14:21:58;10.15;;;4.88;;
76850;SDS011;65824;43.726;20.692;2024-03-02T14:24:23;9.25;;;4.50;;
76850;SDS011;65824;43.726;20.692;2024-03-02T14:26:53;7.75;;;4.38;;
76850;SDS011;65824;43.726;20.692;2024-03-02T14:29:21;11.13;;;4.45;;
76850;SDS011;65824;43.726;20.692;2024-03-02T14:31:48;9.27;;;4.28;;
76850;SDS011;65824;43.726;20.692;2024-03-02T14:34:15;11.88;;;5.28;;
76850;SDS011;65824;43.726;20.692;2024-03-02T14:36:40;7.88;;;4.30;;
76850;SDS011;65824;43.726;20.692;2024-03-02T14:39:08;11.05;;;5.78;;